createdAt,value
2023-03-17T00:00:36.960Z,9.143
2023-03-17T00:01:36.137Z,9.135
2023-03-17T00:02:35.735Z,9.180
2023-03-17T00:03:35.883Z,9.244
2023-03-17T00:04:35.678Z,9.258
2023-03-17T00:05:36.130Z,9.216
2023-03-17T00:06:34.679Z,9.168
2023-03-17T00:07:34.626Z,9.093
2023-03-17T00:08:35.039Z,9.029
2023-03-17T00:09:34.992Z,9
2023-03-17T00:10:34.829Z,8.970
2023-03-17T00:11:35.600Z,8.933
2023-03-17T00:12:35.589Z,8.938
2023-03-17T00:13:40.191Z,8.958
2023-03-17T00:14:35.468Z,8.936
2023-03-17T00:15:43.431Z,8.898
2023-03-17T00:16:35.099Z,8.890
2023-03-17T00:17:34.840Z,8.850
2023-03-17T00:18:35.002Z,8.853
2023-03-17T00:19:34.584Z,8.854
2023-03-17T00:20:35.086Z,8.829
2023-03-17T00:21:34.600Z,8.808
2023-03-17T00:22:35.206Z,8.808
2023-03-17T00:23:34.974Z,8.760
2023-03-17T00:24:35.343Z,8.713
2023-03-17T00:25:35.124Z,8.651
2023-03-17T00:26:34.623Z,8.653
2023-03-17T00:27:35.501Z,8.666
2023-03-17T00:28:34.977Z,8.633
2023-03-17T00:29:34.018Z,8.613
2023-03-17T00:30:35.126Z,8.636
2023-03-17T00:31:35.010Z,8.625
2023-03-17T00:32:34.807Z,8.596
2023-03-17T00:33:35.226Z,8.600
2023-03-17T00:34:34.738Z,8.593
2023-03-17T00:35:35.110Z,8.503
2023-03-17T00:36:34.496Z,8.416
2023-03-17T00:37:34.834Z,8.386
2023-03-17T00:38:35.021Z,8.393
2023-03-17T00:39:34.461Z,8.385
2023-03-17T00:40:34.878Z,8.383
2023-03-17T00:41:34.896Z,8.376
2023-03-17T00:42:35.780Z,8.324
2023-03-17T00:43:34.989Z,8.286
2023-03-17T00:44:34.568Z,8.265
2023-03-17T00:45:35.613Z,8.255
2023-03-17T00:46:35.316Z,8.273
2023-03-17T00:47:34.932Z,8.255
2023-03-17T00:48:35.023Z,8.233
2023-03-17T00:49:34.669Z,8.220
2023-03-17T00:50:35.381Z,8.201
2023-03-17T00:51:34.733Z,8.213
2023-03-17T00:52:35.342Z,8.279
2023-03-17T00:53:34.565Z,8.321
2023-03-17T00:54:35.149Z,8.381
2023-03-17T00:55:34.527Z,8.411
2023-03-17T00:56:34.775Z,8.420
2023-03-17T00:57:35.029Z,8.505
2023-03-17T00:58:34.692Z,8.538
2023-03-17T00:59:35.326Z,8.569
2023-03-17T01:00:36.629Z,8.571
2023-03-17T01:01:39.258Z,8.569
2023-03-17T01:02:34.958Z,8.564
2023-03-17T01:03:35.190Z,8.551
2023-03-17T01:04:34.781Z,8.539
2023-03-17T01:05:35.233Z,8.522
2023-03-17T01:06:35.059Z,8.518
2023-03-17T01:07:34.944Z,8.484
2023-03-17T01:08:35.385Z,8.478
2023-03-17T01:09:35.144Z,8.458
2023-03-17T01:10:35.139Z,8.471
2023-03-17T01:11:34.882Z,8.451
2023-03-17T01:12:35.110Z,8.444
2023-03-17T01:13:34.228Z,8.460
2023-03-17T01:14:37.434Z,8.443
2023-03-17T01:15:35.697Z,8.466
2023-03-17T01:16:35.396Z,8.442
2023-03-17T01:17:35.326Z,8.416
2023-03-17T01:18:35.058Z,8.399
2023-03-17T01:20:35.420Z,8.351
2023-03-17T01:21:35.070Z,8.346
2023-03-17T01:22:34.362Z,8.319
2023-03-17T01:23:34.737Z,8.308
2023-03-17T01:24:34.939Z,8.298
2023-03-17T01:25:35.495Z,8.293
2023-03-17T01:26:36.281Z,8.284
2023-03-17T01:27:34.821Z,8.313
2023-03-17T01:28:34.829Z,8.338
2023-03-17T01:29:35.193Z,8.338
2023-03-17T01:30:35.485Z,8.346
2023-03-17T01:31:34.730Z,8.328
2023-03-17T01:32:35.299Z,8.316
2023-03-17T01:33:34.727Z,8.308
2023-03-17T01:34:35.021Z,8.310
2023-03-17T01:35:35.134Z,8.326
2023-03-17T01:36:35.033Z,8.313
2023-03-17T01:37:34.920Z,8.326
2023-03-17T01:38:35.349Z,8.305
2023-03-17T01:39:35.036Z,8.296
2023-03-17T01:40:35.118Z,8.271
2023-03-17T01:41:34.983Z,8.288
2023-03-17T01:42:34.741Z,8.265
2023-03-17T01:43:35.330Z,8.203
2023-03-17T01:44:34.932Z,8.176
2023-03-17T01:45:35.528Z,8.164
2023-03-17T01:46:35.104Z,8.158
2023-03-17T01:47:34.888Z,8.149
2023-03-17T01:48:35.570Z,8.151
2023-03-17T01:49:35.086Z,8.154
2023-03-17T01:50:34.692Z,8.148
2023-03-17T01:51:35.359Z,8.154
2023-03-17T01:52:34.995Z,8.114
2023-03-17T01:53:35.166Z,8.111
2023-03-17T01:54:34.777Z,8.085
2023-03-17T01:55:35.470Z,8.069
2023-03-17T01:56:34.670Z,8.046
2023-03-17T01:57:35.017Z,8.053
2023-03-17T01:58:34.974Z,8.068
2023-03-17T01:59:34.602Z,8.111
2023-03-17T02:00:36.747Z,8.131
2023-03-17T02:01:36.172Z,8.135
2023-03-17T02:02:35.281Z,8.163
2023-03-17T02:03:35.448Z,8.186
2023-03-17T02:04:35.509Z,8.186
2023-03-17T02:05:35.322Z,8.201
2023-03-17T02:06:37.008Z,8.220
2023-03-17T02:07:35.005Z,8.221
2023-03-17T02:08:34.904Z,8.223
2023-03-17T02:09:35.452Z,8.201
2023-03-17T02:10:35.279Z,8.176
2023-03-17T02:11:35.400Z,8.185
2023-03-17T02:12:35.422Z,8.173
2023-03-17T02:13:35.272Z,8.164
2023-03-17T02:14:34.918Z,8.159
2023-03-17T02:15:36.364Z,8.140
2023-03-17T02:16:34.833Z,8.131
2023-03-17T02:17:35.687Z,8.136
2023-03-17T02:18:35.418Z,8.178
2023-03-17T02:19:35.316Z,8.173
2023-03-17T02:20:35.571Z,8.185
2023-03-17T02:21:35.100Z,8.186
2023-03-17T02:22:34.969Z,8.185
2023-03-17T02:23:35.026Z,8.198
2023-03-17T02:24:34.634Z,8.196
2023-03-17T02:25:35.535Z,8.196
2023-03-17T02:26:34.502Z,8.183
2023-03-17T02:27:35.004Z,8.189
2023-03-17T02:28:34.864Z,8.211
2023-03-17T02:29:34.946Z,8.194
2023-03-17T02:30:35.653Z,8.186
2023-03-17T02:31:35.932Z,8.186
2023-03-17T02:32:35.555Z,8.185
2023-03-17T02:33:35.431Z,8.175
2023-03-17T02:34:35.379Z,8.134
2023-03-17T02:35:35.194Z,8.102
2023-03-17T02:36:35.225Z,8.091
2023-03-17T02:37:35.012Z,8.095
2023-03-17T02:38:34.685Z,8.060
2023-03-17T02:39:34.955Z,8.022
2023-03-17T02:40:35.326Z,8.021
2023-03-17T02:41:34.587Z,8.015
2023-03-17T02:42:35.170Z,8.038
2023-03-17T02:43:35.105Z,8.041
2023-03-17T02:44:34.858Z,8.047
2023-03-17T02:45:35.884Z,8.041
2023-03-17T02:46:43.356Z,8.052
2023-03-17T02:47:35.574Z,8.055
2023-03-17T02:48:35.370Z,7.992
2023-03-17T02:49:34.742Z,8.038
2023-03-17T02:50:34.751Z,8.037
2023-03-17T02:51:35.460Z,8.005
2023-03-17T02:52:34.513Z,7.994
2023-03-17T02:53:35.268Z,7.986
2023-03-17T02:54:35.404Z,7.971
2023-03-17T02:55:35.357Z,7.973
2023-03-17T02:56:35.022Z,7.994
2023-03-17T02:57:34.165Z,7.986
2023-03-17T02:58:35.155Z,7.973
2023-03-17T02:59:34.941Z,7.973
2023-03-17T03:00:50.443Z,7.958
2023-03-17T03:01:35.680Z,7.935
2023-03-17T03:02:35.619Z,7.913
2023-03-17T03:03:35.654Z,7.869
2023-03-17T03:04:35.364Z,7.858
2023-03-17T03:05:34.950Z,7.856
2023-03-17T03:06:35.577Z,7.813
2023-03-17T03:07:34.456Z,7.803
2023-03-17T03:08:34.719Z,7.789
2023-03-17T03:09:34.995Z,7.760
2023-03-17T03:10:35.184Z,7.755
2023-03-17T03:11:35.055Z,7.744
2023-03-17T03:12:42.439Z,7.746
2023-03-17T03:13:34.999Z,7.755
2023-03-17T03:14:56.900Z,7.786
2023-03-17T03:15:36.305Z,7.820
2023-03-17T03:16:35.443Z,7.801
2023-03-17T03:17:34.502Z,7.833
2023-03-17T03:18:34.689Z,7.855
2023-03-17T03:19:35.035Z,7.843
2023-03-17T03:20:34.350Z,7.804
2023-03-17T03:21:35.486Z,7.764
2023-03-17T03:22:34.807Z,7.756
2023-03-17T03:23:35.066Z,7.780
2023-03-17T03:24:34.435Z,7.775
2023-03-17T03:25:34.817Z,7.743
2023-03-17T03:26:35.608Z,7.733
2023-03-17T03:27:34.812Z,7.688
2023-03-17T03:28:35.090Z,7.675
2023-03-17T03:29:34.900Z,7.664
2023-03-17T03:30:36.418Z,7.651
2023-03-17T03:31:34.911Z,7.623
2023-03-17T03:32:35.345Z,7.608
2023-03-17T03:33:35.368Z,7.596
2023-03-17T03:34:35.044Z,7.574
2023-03-17T03:35:35.505Z,7.581
2023-03-17T03:36:35.173Z,7.556
2023-03-17T03:37:34.730Z,7.525
2023-03-17T03:38:35.201Z,7.514
2023-03-17T03:39:34.898Z,7.498
2023-03-17T03:40:35.376Z,7.508
2023-03-17T03:41:34.579Z,7.456
2023-03-17T03:42:34.782Z,7.428
2023-03-17T03:43:37.443Z,7.406
2023-03-17T03:44:34.708Z,7.344
2023-03-17T03:45:35.635Z,7.318
2023-03-17T03:46:35.141Z,7.331
2023-03-17T03:47:34.760Z,7.301
2023-03-17T03:48:35.195Z,7.284
2023-03-17T03:49:34.610Z,7.284
2023-03-17T03:50:35.461Z,7.275
2023-03-17T03:51:35.088Z,7.283
2023-03-17T03:52:35.208Z,7.231
2023-03-17T03:53:34.609Z,7.223
2023-03-17T03:54:35.020Z,7.231
2023-03-17T03:55:34.781Z,7.223
2023-03-17T03:56:35.293Z,7.195
2023-03-17T03:57:34.353Z,7.204
2023-03-17T03:58:34.521Z,7.184
2023-03-17T03:59:34.897Z,7.168
2023-03-17T04:00:36.777Z,7.159
2023-03-17T04:01:35.731Z,7.101
2023-03-17T04:02:36.026Z,7.118
2023-03-17T04:03:34.444Z,7.108
2023-03-17T04:04:34.930Z,7.063
2023-03-17T04:05:34.550Z,7.006
2023-03-17T04:06:35.411Z,6.985
2023-03-17T04:07:35.036Z,6.966
2023-03-17T04:08:34.822Z,6.921
2023-03-17T04:09:35.226Z,6.888
2023-03-17T04:10:35.158Z,6.882
2023-03-17T04:11:34.947Z,6.920
2023-03-17T04:13:35.384Z,6.829
2023-03-17T04:14:34.808Z,6.804
2023-03-17T04:15:35.579Z,6.789
2023-03-17T04:16:35.712Z,6.784
2023-03-17T04:17:35.541Z,6.809
2023-03-17T04:18:35.074Z,6.837
2023-03-17T04:19:34.324Z,6.840
2023-03-17T04:20:34.756Z,6.855
2023-03-17T04:21:35.716Z,6.863
2023-03-17T04:22:34.932Z,6.874
2023-03-17T04:23:35.310Z,6.861
2023-03-17T04:24:34.957Z,6.869
2023-03-17T04:25:35.343Z,6.849
2023-03-17T04:26:35.304Z,6.840
2023-03-17T04:27:35.216Z,6.833
2023-03-17T04:28:34.600Z,6.829
2023-03-17T04:29:34.408Z,6.794
2023-03-17T04:30:35.452Z,6.796
2023-03-17T04:31:34.647Z,6.786
2023-03-17T04:32:34.972Z,6.768
2023-03-17T04:33:34.972Z,6.793
2023-03-17T04:34:35.184Z,6.766
2023-03-17T04:35:35.386Z,6.763
2023-03-17T04:36:35.135Z,6.763
2023-03-17T04:37:34.843Z,6.766
2023-03-17T04:38:35.462Z,6.755
2023-03-17T04:39:34.919Z,6.758
2023-03-17T04:40:35.268Z,6.724
2023-03-17T04:41:34.812Z,6.713
2023-03-17T04:42:35.149Z,6.730
2023-03-17T04:43:34.819Z,6.900
2023-03-17T04:44:35.246Z,6.993
2023-03-17T04:45:35.140Z,6.996
2023-03-17T04:46:35.529Z,6.956
2023-03-17T04:47:34.856Z,7.008
2023-03-17T04:48:35.202Z,7.078
2023-03-17T04:49:34.530Z,7.158
2023-03-17T04:50:35.476Z,7.288
2023-03-17T04:51:35.328Z,7.440
2023-03-17T04:52:34.590Z,7.516
2023-03-17T04:53:35.370Z,7.578
2023-03-17T04:54:34.723Z,7.671
2023-03-17T04:55:35.846Z,7.748
2023-03-17T04:56:35.379Z,7.860
2023-03-17T04:57:34.798Z,7.936
2023-03-17T04:58:44.208Z,7.978
2023-03-17T04:59:35.168Z,8.011
2023-03-17T05:00:36.173Z,8.048
2023-03-17T05:01:40.684Z,8.100
2023-03-17T05:02:35.572Z,8.140
2023-03-17T05:03:40.827Z,8.149
2023-03-17T05:04:45.287Z,8.194
2023-03-17T05:05:35.167Z,8.229
2023-03-17T05:06:35.059Z,8.260
2023-03-17T05:07:35.302Z,8.283
2023-03-17T05:08:35.395Z,8.288
2023-03-17T05:09:35.257Z,8.270
2023-03-17T05:10:34.937Z,8.251
2023-03-17T05:11:35.082Z,8.25
2023-03-17T05:12:34.978Z,8.233
2023-03-17T05:13:34.301Z,8.236
2023-03-17T05:14:35.010Z,8.234
2023-03-17T05:15:35.201Z,8.253
2023-03-17T05:16:35.119Z,8.268
2023-03-17T05:17:35.279Z,8.284
2023-03-17T05:18:34.717Z,8.348
2023-03-17T05:19:34.924Z,8.404
2023-03-17T05:20:35.685Z,8.456
2023-03-17T05:21:35.407Z,8.496
2023-03-17T05:22:35.528Z,8.528
2023-03-17T05:23:35.120Z,8.548
2023-03-17T05:24:34.580Z,8.569
2023-03-17T05:25:35.879Z,8.586
2023-03-17T05:26:35.828Z,8.613
2023-03-17T05:27:35.578Z,8.623
2023-03-17T05:28:35.230Z,8.645
2023-03-17T05:29:34.878Z,8.663
2023-03-17T05:30:35.943Z,8.656
2023-03-17T05:31:35.577Z,8.661
2023-03-17T05:32:35.013Z,8.675
2023-03-17T05:33:35.206Z,8.693
2023-03-17T05:34:35.030Z,8.699
2023-03-17T05:35:40.857Z,8.704
2023-03-17T05:36:35.599Z,8.689
2023-03-17T05:37:40.374Z,8.680
2023-03-17T05:38:34.892Z,8.664
2023-03-17T05:39:35.653Z,8.670
2023-03-17T05:40:37.453Z,8.675
2023-03-17T05:41:34.827Z,8.685
2023-03-17T05:42:35.299Z,8.701
2023-03-17T05:43:35.249Z,8.718
2023-03-17T05:44:35.288Z,8.704
2023-03-17T05:45:35.255Z,8.706
2023-03-17T05:46:34.906Z,8.708
2023-03-17T05:47:35.557Z,8.708
2023-03-17T05:48:35.283Z,8.703
2023-03-17T05:49:35.465Z,8.723
2023-03-17T05:50:35.143Z,8.722
2023-03-17T05:51:36.896Z,8.720
2023-03-17T05:52:35.704Z,8.720
2023-03-17T05:53:35.306Z,8.718
2023-03-17T05:54:35.048Z,8.718
2023-03-17T05:55:35.511Z,8.708
2023-03-17T05:56:35.424Z,8.688
2023-03-17T05:57:34.768Z,8.673
2023-03-17T05:58:35.465Z,8.662
2023-03-17T05:59:35.022Z,8.682
2023-03-17T06:00:36.198Z,8.716
2023-03-17T06:01:35.370Z,8.739
2023-03-17T06:02:35.216Z,8.754
2023-03-17T06:03:34.824Z,8.791
2023-03-17T06:04:35.353Z,8.805
2023-03-17T06:05:35.849Z,8.850
2023-03-17T06:06:35.118Z,8.859
2023-03-17T06:07:44.897Z,8.876
2023-03-17T06:08:35.021Z,8.898
2023-03-17T06:09:35.418Z,8.916
2023-03-17T06:10:35.799Z,8.941
2023-03-17T06:11:36.261Z,8.963
2023-03-17T06:12:35.739Z,8.970
2023-03-17T06:13:35.261Z,8.981
2023-03-17T06:14:34.740Z,8.998
2023-03-17T06:15:35.757Z,9.018
2023-03-17T06:16:35.720Z,9.053
2023-03-17T06:17:35.400Z,9.076
2023-03-17T06:18:34.987Z,9.093
2023-03-17T06:19:34.861Z,9.108
2023-03-17T06:20:35.209Z,9.116
2023-03-17T06:21:35.051Z,9.151
2023-03-17T06:22:35.244Z,9.210
2023-03-17T06:23:35.055Z,9.243
2023-03-17T06:24:35.428Z,9.260
2023-03-17T06:25:35.654Z,9.274
2023-03-17T06:26:35.333Z,9.291
2023-03-17T06:27:35.653Z,9.310
2023-03-17T06:28:35.065Z,9.314
2023-03-17T06:29:35.164Z,9.323
2023-03-17T06:30:35.212Z,9.333
2023-03-17T06:31:34.944Z,9.366
2023-03-17T06:32:34.766Z,9.373
2023-03-17T06:33:36.816Z,9.375
2023-03-17T06:34:36.382Z,9.399
2023-03-17T06:35:36.793Z,9.426
2023-03-17T06:36:38.497Z,9.436
2023-03-17T06:37:35.546Z,9.468
2023-03-17T06:38:35.291Z,9.5
2023-03-17T06:39:35.149Z,9.510
2023-03-17T06:40:35.431Z,9.550
2023-03-17T06:41:35.467Z,9.578
2023-03-17T06:42:35.550Z,9.591
2023-03-17T06:43:35.394Z,9.600
2023-03-17T06:44:35.108Z,9.608
2023-03-17T06:45:35.228Z,9.631
2023-03-17T06:46:35.133Z,9.659
2023-03-17T06:47:34.651Z,9.691
2023-03-17T06:48:35.644Z,9.698
2023-03-17T06:49:35.608Z,9.706
2023-03-17T06:50:35.970Z,9.736
2023-03-17T06:51:35.898Z,9.831
2023-03-17T06:52:36.482Z,9.885
2023-03-17T06:53:35.529Z,9.946
2023-03-17T06:54:36.395Z,9.946
2023-03-17T06:55:36.768Z,9.994
2023-03-17T06:56:44.444Z,10.04
2023-03-17T06:57:37.399Z,10.10
2023-03-17T06:58:35.586Z,10.14
2023-03-17T06:59:36.144Z,10.17
2023-03-17T07:00:36.893Z,10.18
2023-03-17T07:01:36.578Z,10.34
2023-03-17T07:02:35.808Z,10.40
2023-03-17T07:03:38.200Z,10.46
2023-03-17T07:04:35.849Z,10.49
2023-03-17T07:05:37.764Z,10.56
2023-03-17T07:06:36.021Z,10.55
2023-03-17T07:07:35.568Z,10.56
2023-03-17T07:08:35.997Z,10.53
2023-03-17T07:09:35.086Z,10.52
2023-03-17T07:10:35.286Z,10.52
2023-03-17T07:11:35.602Z,10.60
2023-03-17T07:12:35.888Z,10.61
2023-03-17T07:13:35.901Z,10.60
2023-03-17T07:14:36.337Z,10.61
2023-03-17T07:15:36.793Z,10.63
2023-03-17T07:16:36.052Z,10.65
2023-03-17T07:17:35.462Z,10.65
2023-03-17T07:18:35.978Z,10.59
2023-03-17T07:19:35.231Z,10.57
2023-03-17T07:20:40.348Z,10.54
2023-03-17T07:21:35.281Z,10.54
2023-03-17T07:22:35.437Z,10.56
2023-03-17T07:23:35.327Z,10.57
2023-03-17T07:24:35.302Z,10.61
2023-03-17T07:25:35.715Z,10.61
2023-03-17T07:26:35.258Z,10.57
2023-03-17T07:27:36.566Z,10.60
2023-03-17T07:28:35.259Z,10.61
2023-03-17T07:29:35.704Z,10.62
2023-03-17T07:30:41.188Z,10.61
2023-03-17T07:31:35.950Z,10.60
2023-03-17T07:32:35.390Z,10.60
2023-03-17T07:33:35.480Z,10.59
2023-03-17T07:34:43.978Z,10.59
2023-03-17T07:35:38.269Z,10.65
2023-03-17T07:36:43.866Z,10.67
2023-03-17T07:37:36.300Z,10.71
2023-03-17T07:38:35.404Z,10.71
2023-03-17T07:39:35.748Z,10.73
2023-03-17T07:40:36.176Z,10.76
2023-03-17T07:41:35.488Z,10.74
2023-03-17T07:42:36.112Z,10.75
2023-03-17T07:43:35.266Z,10.78
2023-03-17T07:44:36.144Z,10.82
2023-03-17T07:45:36.547Z,10.86
2023-03-17T07:46:35.561Z,10.85
2023-03-17T07:47:35.779Z,10.84
2023-03-17T07:48:36.517Z,10.89
2023-03-17T07:49:54.180Z,10.92
2023-03-17T07:50:50.090Z,10.92
2023-03-17T07:51:35.591Z,10.97
2023-03-17T07:52:50.019Z,10.97
2023-03-17T07:53:35.118Z,10.97
2023-03-17T07:54:35.415Z,10.98
2023-03-17T07:55:35.551Z,10.98
2023-03-17T07:56:41.439Z,10.97
2023-03-17T07:57:36.222Z,10.96
2023-03-17T07:58:40.849Z,10.96
2023-03-17T07:59:36.663Z,10.97
2023-03-17T08:00:52.702Z,11.02
2023-03-17T08:01:36.894Z,11.06
2023-03-17T08:02:36.111Z,11.08
2023-03-17T08:03:35.767Z,11.12
2023-03-17T08:04:35.966Z,11.17
2023-03-17T08:05:36.470Z,11.18
2023-03-17T08:06:43.578Z,11.18
2023-03-17T08:07:36.176Z,11.18
2023-03-17T08:08:35.244Z,11.17
2023-03-17T08:09:36.149Z,11.17
2023-03-17T08:10:59.131Z,11.26
2023-03-17T08:11:35.916Z,11.24
2023-03-17T08:12:36.762Z,11.27
2023-03-17T08:13:36.286Z,11.30
2023-03-17T08:14:35.476Z,11.34
2023-03-17T08:15:36.532Z,11.34
2023-03-17T08:17:36.138Z,11.37
2023-03-17T08:18:36.101Z,11.40
2023-03-17T08:19:35.615Z,11.40
2023-03-17T08:20:36.164Z,11.40
2023-03-17T08:21:36.115Z,11.42
2023-03-17T08:22:36.101Z,11.43
2023-03-17T08:23:35.402Z,11.44
2023-03-17T08:24:36.373Z,11.52
2023-03-17T08:25:35.642Z,11.55
2023-03-17T08:26:35.965Z,11.59
2023-03-17T08:27:35.911Z,11.61
2023-03-17T08:28:36.004Z,11.66
2023-03-17T08:29:35.967Z,11.66
2023-03-17T08:30:36.677Z,11.73
2023-03-17T08:31:36.556Z,11.78
2023-03-17T08:32:35.953Z,11.78
2023-03-17T08:33:35.598Z,11.79
2023-03-17T08:34:36.380Z,11.76
2023-03-17T08:35:36.336Z,11.77
2023-03-17T08:36:35.589Z,11.77
2023-03-17T08:37:35.924Z,11.78
2023-03-17T08:38:36.036Z,11.78
2023-03-17T08:39:35.363Z,11.85
2023-03-17T08:40:36.165Z,11.87
2023-03-17T08:41:35.894Z,11.99
2023-03-17T08:42:35.195Z,12.02
2023-03-17T08:43:35.756Z,12.02
2023-03-17T08:44:36.211Z,12.01
2023-03-17T08:45:36.155Z,12.04
2023-03-17T08:46:35.135Z,12.04
2023-03-17T08:47:35.737Z,12.06
2023-03-17T08:48:36.117Z,12.12
2023-03-17T08:49:35.810Z,12.20
2023-03-17T08:50:36.637Z,12.29
2023-03-17T08:51:38.176Z,12.37
2023-03-17T08:52:37.117Z,12.43
2023-03-17T08:53:36.410Z,12.53
2023-03-17T08:54:36.222Z,12.64
2023-03-17T08:55:36.041Z,12.70
2023-03-17T08:56:35.976Z,12.76
2023-03-17T08:57:36.917Z,12.81
2023-03-17T08:58:37.376Z,12.83
2023-03-17T08:59:36.462Z,12.89
2023-03-17T09:00:37.687Z,12.92
2023-03-17T09:01:36.399Z,12.86
2023-03-17T09:02:46.554Z,12.79
2023-03-17T09:03:35.919Z,12.74
2023-03-17T09:04:37.766Z,12.73
2023-03-17T09:05:38.291Z,12.80
2023-03-17T09:06:36.487Z,12.83
2023-03-17T09:07:35.755Z,12.82
2023-03-17T09:08:35.863Z,12.81
2023-03-17T09:09:36.275Z,12.94
2023-03-17T09:10:36.142Z,13.02
2023-03-17T09:11:36.040Z,13.06
2023-03-17T09:12:35.982Z,13.11
2023-03-17T09:13:35.796Z,13.15
2023-03-17T09:14:43.339Z,13.26
2023-03-17T09:15:36.691Z,13.26
2023-03-17T09:16:36.022Z,13.32
2023-03-17T09:17:36.737Z,13.30
2023-03-17T09:18:36.643Z,13.25
2023-03-17T09:19:37.050Z,13.24
2023-03-17T09:20:36.816Z,13.18
2023-03-17T09:21:36.418Z,13.18
2023-03-17T09:22:36.026Z,13.22
2023-03-17T09:23:35.485Z,13.29
2023-03-17T09:24:35.641Z,13.30
2023-03-17T09:25:36.235Z,13.43
2023-03-17T09:26:35.835Z,13.59
2023-03-17T09:27:35.871Z,13.59
2023-03-17T09:28:36.337Z,13.60
2023-03-17T09:29:36.048Z,13.64
2023-03-17T09:30:36.025Z,13.69
2023-03-17T09:31:35.930Z,13.67
2023-03-17T09:32:37.290Z,13.63
2023-03-17T09:33:36.285Z,13.58
2023-03-17T09:34:35.631Z,13.59
2023-03-17T09:35:36.973Z,13.62
2023-03-17T09:36:36.375Z,13.67
2023-03-17T09:37:36.507Z,13.74
2023-03-17T09:38:36.334Z,13.71
2023-03-17T09:39:36.328Z,13.74
2023-03-17T09:40:36.844Z,13.77
2023-03-17T09:41:36.582Z,13.73
2023-03-17T09:42:36.789Z,13.67
2023-03-17T09:43:36.559Z,13.59
2023-03-17T09:44:35.940Z,13.74
2023-03-17T09:45:37.201Z,13.82
2023-03-17T09:46:37.010Z,13.83
2023-03-17T09:47:36.926Z,13.87
2023-03-17T09:48:36.712Z,13.85
2023-03-17T09:49:36.130Z,13.85
2023-03-17T09:50:38.599Z,13.91
2023-03-17T09:51:36.584Z,13.90
2023-03-17T09:52:36.026Z,13.94
2023-03-17T09:53:35.957Z,14.00
2023-03-17T09:54:36.262Z,13.98
2023-03-17T09:55:35.830Z,13.88
2023-03-17T09:56:37.326Z,13.73
2023-03-17T09:57:40.945Z,13.68
2023-03-17T09:58:37.060Z,13.77
2023-03-17T09:59:44.031Z,13.90
2023-03-17T10:00:37.400Z,14.00
2023-03-17T10:01:38.052Z,14.14
2023-03-17T10:02:37.021Z,14.18
2023-03-17T10:03:37.069Z,14.30
2023-03-17T10:04:35.846Z,14.31
2023-03-17T10:05:36.525Z,14.33
2023-03-17T10:06:36.909Z,14.40
2023-03-17T10:07:36.364Z,14.39
2023-03-17T10:08:46.185Z,14.42
2023-03-17T10:09:40.303Z,14.44
2023-03-17T10:10:36.812Z,14.46
2023-03-17T10:11:37.403Z,14.51
2023-03-17T10:12:37.215Z,14.57
2023-03-17T10:13:36.340Z,14.56
2023-03-17T10:14:36.841Z,14.49
2023-03-17T10:15:37.087Z,14.39
2023-03-17T10:16:38.661Z,14.43
2023-03-17T10:17:37.974Z,14.46
2023-03-17T10:18:38.047Z,14.50
2023-03-17T10:19:37.672Z,14.58
2023-03-17T10:20:37.359Z,14.61
2023-03-17T10:21:41.437Z,14.64
2023-03-17T10:22:36.812Z,14.71
2023-03-17T10:23:37.467Z,14.74
2023-03-17T10:24:37.787Z,14.73
2023-03-17T10:25:37.243Z,14.75
2023-03-17T10:26:36.968Z,14.82
2023-03-17T10:27:36.812Z,14.91
2023-03-17T10:28:36.122Z,14.90
2023-03-17T10:29:36.831Z,14.91
2023-03-17T10:30:37.761Z,14.87
2023-03-17T10:31:37.628Z,14.79
2023-03-17T10:32:37.507Z,14.80
2023-03-17T10:33:37.520Z,14.86
2023-03-17T10:34:38.135Z,14.90
2023-03-17T10:35:36.642Z,14.92
2023-03-17T10:36:37.503Z,14.90
2023-03-17T10:37:36.804Z,14.91
2023-03-17T10:38:37.021Z,14.94
2023-03-17T10:39:44.879Z,14.97
2023-03-17T10:40:37.533Z,14.94
2023-03-17T10:41:37.031Z,14.94
2023-03-17T10:42:36.837Z,14.92
2023-03-17T10:43:37.669Z,14.89
2023-03-17T10:44:37.039Z,14.84
2023-03-17T10:45:39.095Z,14.84
2023-03-17T10:46:37.191Z,14.83
2023-03-17T10:47:36.749Z,14.80
2023-03-17T10:48:37.342Z,14.84
2023-03-17T10:49:37.225Z,14.92
2023-03-17T10:50:37.092Z,14.96
2023-03-17T10:51:36.614Z,14.96
2023-03-17T10:52:36.823Z,14.94
2023-03-17T10:53:37.901Z,14.94
2023-03-17T10:54:36.969Z,14.97
2023-03-17T10:55:36.609Z,14.98
2023-03-17T10:56:36.591Z,14.99
2023-03-17T10:57:36.749Z,15.03
2023-03-17T10:58:36.217Z,15.02
2023-03-17T10:59:36.164Z,15.00
2023-03-17T11:00:38.598Z,15.00
2023-03-17T11:01:38.522Z,15.10
2023-03-17T11:02:37.813Z,15.12
2023-03-17T11:03:37.375Z,15.10
2023-03-17T11:04:36.753Z,15.14
2023-03-17T11:05:39.069Z,15.14
2023-03-17T11:06:36.175Z,15.11
2023-03-17T11:07:36.114Z,15.11
2023-03-17T11:08:36.553Z,15.14
2023-03-17T11:09:37.156Z,15.13
2023-03-17T11:10:36.343Z,15.08
2023-03-17T11:11:36.469Z,15.12
2023-03-17T11:12:36.588Z,15.15
2023-03-17T11:13:36.774Z,15.28
2023-03-17T11:14:36.642Z,15.32
2023-03-17T11:15:37.144Z,15.31
2023-03-17T11:16:36.848Z,15.31
2023-03-17T11:17:36.752Z,15.31
2023-03-17T11:18:36.838Z,15.32
2023-03-17T11:19:36.706Z,15.38
2023-03-17T11:20:37.273Z,15.41
2023-03-17T11:21:36.625Z,15.41
2023-03-17T11:22:36.538Z,15.39
2023-03-17T11:23:36.379Z,15.38
2023-03-17T11:24:36.074Z,15.40
2023-03-17T11:25:36.535Z,15.43
2023-03-17T11:26:36.712Z,15.51
2023-03-17T11:27:36.612Z,15.59
2023-03-17T11:28:36.795Z,15.59
2023-03-17T11:29:36.643Z,15.60
2023-03-17T11:30:36.873Z,15.61
2023-03-17T11:31:36.806Z,15.64
2023-03-17T11:32:37.136Z,15.60
2023-03-17T11:34:35.566Z,15.63
2023-03-17T11:35:36.007Z,15.61
2023-03-17T11:36:36.463Z,15.61
2023-03-17T11:37:37.216Z,15.63
2023-03-17T11:38:36.609Z,15.60
2023-03-17T11:39:36.023Z,15.61
2023-03-17T11:40:36.784Z,15.68
2023-03-17T11:41:36.772Z,15.64
2023-03-17T11:42:37.145Z,15.60
2023-03-17T11:43:36.524Z,15.58
2023-03-17T11:44:36.997Z,15.60
2023-03-17T11:45:37.051Z,15.63
2023-03-17T11:46:36.394Z,15.68
2023-03-17T11:47:36.068Z,15.70
2023-03-17T11:48:36.763Z,15.81
2023-03-17T11:49:36.877Z,15.88
2023-03-17T11:50:36.860Z,15.90
2023-03-17T11:51:37.339Z,15.89
2023-03-17T11:52:35.764Z,15.91
2023-03-17T11:53:36.709Z,15.97
2023-03-17T11:54:35.905Z,15.90
2023-03-17T11:55:38.063Z,15.85
2023-03-17T11:56:36.890Z,15.99
2023-03-17T11:57:37.812Z,16.04
2023-03-17T11:58:36.993Z,16.06
2023-03-17T11:59:37.144Z,16.07
2023-03-17T12:00:37.686Z,16.25
2023-03-17T12:01:37.450Z,16.27
2023-03-17T12:02:36.545Z,16.25
2023-03-17T12:03:36.782Z,16.26
2023-03-17T12:04:37.316Z,16.29
2023-03-17T12:05:38.347Z,16.34
2023-03-17T12:06:37.647Z,16.35
2023-03-17T12:07:37.051Z,16.37
2023-03-17T12:08:35.630Z,16.39
2023-03-17T12:09:36.080Z,16.40
2023-03-17T12:10:35.515Z,16.41
2023-03-17T12:11:36.742Z,16.35
2023-03-17T12:12:41.721Z,16.30
2023-03-17T12:13:36.943Z,16.30
2023-03-17T12:14:41.125Z,16.41
2023-03-17T12:15:36.367Z,16.44
2023-03-17T12:16:36.607Z,16.51
2023-03-17T12:17:40.556Z,16.54
2023-03-17T12:18:36.873Z,16.49
2023-03-17T12:19:37.412Z,16.50
2023-03-17T12:20:37.471Z,16.47
2023-03-17T12:21:37.052Z,16.51
2023-03-17T12:22:36.457Z,16.49
2023-03-17T12:23:36.619Z,16.45
2023-03-17T12:24:36.766Z,16.49
2023-03-17T12:25:37.197Z,16.46
2023-03-17T12:26:44.219Z,16.46
2023-03-17T12:27:36.534Z,16.48
2023-03-17T12:28:36.885Z,16.49
2023-03-17T12:29:36.991Z,16.41
2023-03-17T12:30:36.566Z,16.42
2023-03-17T12:31:38.652Z,16.40
2023-03-17T12:32:37.262Z,16.45
2023-03-17T12:33:36.950Z,16.44
2023-03-17T12:34:37.444Z,16.37
2023-03-17T12:35:38.149Z,16.38
2023-03-17T12:36:37.610Z,16.36
2023-03-17T12:37:36.662Z,16.38
2023-03-17T12:38:37.342Z,16.44
2023-03-17T12:39:37.194Z,16.46
2023-03-17T12:40:39.273Z,16.53
2023-03-17T12:41:36.632Z,16.47
2023-03-17T12:42:36.123Z,16.44
2023-03-17T12:43:36.404Z,16.39
2023-03-17T12:44:41.103Z,16.37
2023-03-17T12:45:36.761Z,16.37
2023-03-17T12:46:42.029Z,16.37
2023-03-17T12:47:35.968Z,16.39
2023-03-17T12:48:37.590Z,16.37
2023-03-17T12:49:36.243Z,16.40
2023-03-17T12:50:55.335Z,16.39
2023-03-17T12:51:38.501Z,16.43
2023-03-17T12:52:55.387Z,16.48
2023-03-17T12:53:35.299Z,16.47
2023-03-17T12:54:42.025Z,16.47
2023-03-17T12:55:35.827Z,16.51
2023-03-17T12:56:36.483Z,16.52